createdAt,value
2022-08-09T00:01:54.128Z,15.1
2022-08-09T00:04:00.477Z,15
2022-08-09T00:06:16.614Z,15
2022-08-09T00:07:44.864Z,15
2022-08-09T00:09:47.419Z,14.9
2022-08-09T00:12:03.516Z,14.9
2022-08-09T00:13:58.441Z,14.9
2022-08-09T00:16:03.073Z,14.9
2022-08-09T00:18:11.238Z,14.8
2022-08-09T00:19:10.356Z,14.8
2022-08-09T00:21:13.656Z,14.8
2022-08-09T00:23:56.506Z,14.7
2022-08-09T00:25:23.229Z,14.7
2022-08-09T00:27:28.577Z,14.7
2022-08-09T00:30:16.352Z,14.7
2022-08-09T00:31:59.745Z,14.6
2022-08-09T00:33:50.618Z,14.6
2022-08-09T00:35:44.106Z,14.6
2022-08-09T00:37:47.975Z,14.6
2022-08-09T00:40:12.873Z,14.6
2022-08-09T00:46:06.764Z,14.5
2022-08-09T00:48:15.446Z,14.5
2022-08-09T00:50:15.107Z,14.5
2022-08-09T00:52:18.409Z,14.5
2022-08-09T01:00:37.226Z,14.4
2022-08-09T01:02:41.119Z,14.4
2022-08-09T01:04:45.001Z,14.3
2022-08-09T01:06:54.867Z,14.3
2022-08-09T01:08:52.794Z,14.3
2022-08-09T01:10:59.970Z,14.3
2022-08-09T01:13:03.840Z,14.3
2022-08-09T01:15:10.018Z,14.2
2022-08-09T01:16:11.303Z,14.2
2022-08-09T01:18:15.211Z,14.2
2022-08-09T01:20:19.079Z,14.1
2022-08-09T01:22:22.984Z,14.1
2022-08-09T01:24:31.752Z,14.1
2022-08-09T01:26:35.617Z,14.1
2022-08-09T01:32:47.289Z,14.1
2022-08-09T01:34:51.206Z,14
2022-08-09T01:36:55.092Z,14
2022-08-09T01:47:17.797Z,13.9
2022-08-09T01:49:24.039Z,13.9
2022-08-09T01:51:26.206Z,13.8
2022-08-09T01:53:41.525Z,13.8
2022-08-09T01:55:36.588Z,13.8
2022-08-09T01:57:46.097Z,13.8
2022-08-09T02:01:59.898Z,13.8
2022-08-09T02:03:52.154Z,13.8
2022-08-09T02:06:03.990Z,13.8
2022-08-09T02:10:07.126Z,13.8
2022-08-09T02:13:14.588Z,13.7
2022-08-09T02:15:18.466Z,13.7
2022-08-09T02:17:59.261Z,13.7
2022-08-09T02:19:34.972Z,13.7
2022-08-09T02:21:34.271Z,13.6
2022-08-09T02:23:39.942Z,13.6
2022-08-09T02:25:42.327Z,13.6
2022-08-09T02:28:00.413Z,13.6
2022-08-09T02:29:48.972Z,13.6
2022-08-09T02:31:52.847Z,13.5
2022-08-09T02:34:07.514Z,13.4
2022-08-09T02:36:04.348Z,13.4
2022-08-09T02:38:07.786Z,13.4
2022-08-09T02:40:11.851Z,13.4
2022-08-09T02:42:15.575Z,13.4
2022-08-09T02:44:22.041Z,13.3
2022-08-09T02:48:31.195Z,13.3
2022-08-09T02:50:34.378Z,13.3
2022-08-09T02:52:38.368Z,13.3
2022-08-09T02:54:51.157Z,13.3
2022-08-09T02:56:51.334Z,13.3
2022-08-09T02:58:49.932Z,13.3
2022-08-09T03:05:05.727Z,13.3
2022-08-09T03:07:14.125Z,13.2
2022-08-09T03:12:06.137Z,13.2
2022-08-09T03:13:43.966Z,13.2
2022-08-09T03:16:04.118Z,13.2
2022-08-09T03:17:46.062Z,13.2
2022-08-09T03:19:58.680Z,13.2
2022-08-09T03:21:53.819Z,13.2
2022-08-09T03:23:57.692Z,13.1
2022-08-09T03:26:03.437Z,13.1
2022-08-09T03:28:05.482Z,13.1
2022-08-09T03:30:09.387Z,13.1
2022-08-09T03:32:16.527Z,13.1
2022-08-09T03:38:29.042Z,13
2022-08-09T03:50:54.733Z,12.9
2022-08-09T03:57:18.067Z,12.9
2022-08-09T04:01:17.509Z,12.9
2022-08-09T04:03:35.764Z,12.8
2022-08-09T04:05:27.797Z,12.9
2022-08-09T04:10:36.526Z,12.8
2022-08-09T04:12:40.783Z,12.8
2022-08-09T04:15:00.586Z,12.8
2022-08-09T04:16:51.447Z,12.7
2022-08-09T04:18:55.345Z,12.8
2022-08-09T04:23:03.107Z,12.7
2022-08-09T04:29:18.077Z,12.8
2022-08-09T04:31:21.966Z,12.8
2022-08-09T04:33:28.667Z,12.8
2022-08-09T04:35:29.738Z,12.8
2022-08-09T04:37:45.282Z,12.9
2022-08-09T04:39:40.393Z,12.9
2022-08-09T04:41:43.759Z,12.9
2022-08-09T04:48:00.940Z,12.9
2022-08-09T04:54:07.977Z,12.9
2022-08-09T04:58:19.018Z,13
2022-08-09T05:02:27.173Z,13
2022-08-09T05:03:42.807Z,13.1
2022-08-09T05:05:52.179Z,13
2022-08-09T05:07:38.170Z,13.1
2022-08-09T05:09:49.342Z,13.1
2022-08-09T05:11:49.239Z,13.2
2022-08-09T05:13:55.027Z,13.2
2022-08-09T05:15:57.209Z,13.2
2022-08-09T05:18:38.171Z,13.3
2022-08-09T05:20:04.770Z,13.3
2022-08-09T05:22:35.028Z,13.4
2022-08-09T05:24:12.544Z,13.4
2022-08-09T05:30:27.459Z,13.6
2022-08-09T05:34:35.236Z,13.6
2022-08-09T05:36:39.118Z,13.7
2022-08-09T05:40:50.594Z,13.9
2022-08-09T05:42:54.019Z,13.9
2022-08-09T05:44:57.934Z,14.1
2022-08-09T05:47:05.711Z,14.4
2022-08-09T05:49:07.438Z,14.6
2022-08-09T05:53:31.616Z,17.1
2022-08-09T05:55:21.731Z,18.2
2022-08-09T05:57:25.158Z,18.3
2022-08-09T05:59:28.355Z,18.5
2022-08-09T06:00:32.878Z,17
2022-08-09T06:02:36.182Z,16.3
2022-08-09T06:04:44.754Z,15.6
2022-08-09T06:08:52.633Z,15.7
2022-08-09T06:10:54.646Z,15.6
2022-08-09T06:13:11.865Z,15.8
2022-08-09T06:17:09.806Z,15.9
2022-08-09T06:25:25.099Z,16
2022-08-09T06:27:41.397Z,16.1
2022-08-09T06:29:32.854Z,16.3
2022-08-09T06:31:40.457Z,16.3
2022-08-09T06:35:57.676Z,18
2022-08-09T06:37:53.292Z,19.8
2022-08-09T06:39:59.784Z,20.6
2022-08-09T06:42:09.108Z,22.1
2022-08-09T06:44:03.190Z,21.3
2022-08-09T06:48:10.917Z,19.9
2022-08-09T06:50:18.921Z,18.9
2022-08-09T06:56:30.898Z,23
2022-08-09T07:03:01.783Z,24
2022-08-09T07:09:56.439Z,25.2
2022-08-09T07:11:23.424Z,24.9
2022-08-09T07:16:36.286Z,24.3
2022-08-09T07:17:39.897Z,24.5
2022-08-09T07:19:39.083Z,25.2
2022-08-09T07:23:57.990Z,25.6
2022-08-09T07:26:02.448Z,25.5
2022-08-09T07:27:57.544Z,25.2
2022-08-09T07:32:05.136Z,26.1
2022-08-09T07:36:15.992Z,25.9
2022-08-09T07:38:19.812Z,26.5
2022-08-09T07:40:26.836Z,26
2022-08-09T07:42:32.859Z,25
2022-08-09T07:44:52.128Z,26.1
2022-08-09T07:46:34.972Z,26.8
2022-08-09T07:50:52.783Z,25.3
2022-08-09T07:54:04.469Z,26.5
2022-08-09T07:56:03.525Z,26.6
2022-08-09T07:58:00.727Z,26.8
2022-08-09T08:02:11.677Z,27
2022-08-09T08:04:15.413Z,26.6
2022-08-09T08:08:59.714Z,26.3
2022-08-09T08:10:27.326Z,26.4
2022-08-09T08:17:00.801Z,26.6
2022-08-09T08:18:45.003Z,26.4
2022-08-09T08:20:48.784Z,26.4
2022-08-09T08:22:52.513Z,27.2
2022-08-09T08:24:57.476Z,27.6
2022-08-09T08:27:00.045Z,27.4
2022-08-09T08:33:24.350Z,26.9
2022-08-09T08:37:22.114Z,27.1
2022-08-09T08:39:25.848Z,26.7
2022-08-09T08:45:43.245Z,27
2022-08-09T08:47:44.961Z,26.7
2022-08-09T08:49:49.304Z,26.5
2022-08-09T08:52:59.175Z,26.5
2022-08-09T08:54:58.937Z,27.1
2022-08-09T08:59:19.901Z,24.5
2022-08-09T09:03:22.728Z,23.7
2022-08-09T09:07:24.734Z,23.4
2022-08-09T09:15:43.066Z,23.2
2022-08-09T09:17:49.429Z,22.9
2022-08-09T09:19:50.564Z,22.8
2022-08-09T09:32:16.414Z,23.4
2022-08-09T09:36:23.855Z,23
2022-08-09T09:38:36.678Z,23
2022-08-09T09:40:31.442Z,23.2
2022-08-09T09:46:52.096Z,23.2
2022-08-09T09:47:58.699Z,23.3
2022-08-09T09:50:14.206Z,23.6
2022-08-09T09:51:56.932Z,23.7
2022-08-09T09:54:21.044Z,23.4
2022-08-09T09:56:09.605Z,23.6
2022-08-09T09:58:18.669Z,23.4
2022-08-09T10:00:06.145Z,23.7
2022-08-09T19:28:17.880Z,21.8
2022-08-09T19:30:28.138Z,21.7
2022-08-09T19:32:26.682Z,21.7
2022-08-09T19:34:52.607Z,21.6
2022-08-09T19:36:53.779Z,21.5
2022-08-09T19:38:57.541Z,21.5
2022-08-09T19:41:04.614Z,21.4
2022-08-09T19:43:10.304Z,21.4
2022-08-09T19:45:12.207Z,21.2
2022-08-09T19:47:15.991Z,21.2
2022-08-09T19:50:08.985Z,21.1
2022-08-09T19:53:27.312Z,21
2022-08-09T19:56:02.044Z,20.9
2022-08-09T19:57:38.168Z,20.9
2022-08-09T19:59:59.504Z,20.9
2022-08-09T20:02:03.304Z,20.8
2022-08-09T20:04:11.218Z,20.7
2022-08-09T20:05:53.502Z,20.6
2022-08-09T20:08:00.285Z,20.6
2022-08-09T20:10:07.143Z,20.5
2022-08-09T20:12:07.985Z,20.4
2022-08-09T20:14:11.779Z,20.4
2022-08-09T20:16:35.408Z,20.3
2022-08-09T20:18:19.753Z,20.2
2022-08-09T20:20:24.637Z,20.2
2022-08-09T20:22:32.177Z,20.1
2022-08-09T20:24:34.495Z,20.1
2022-08-09T20:26:37.904Z,20
2022-08-09T20:28:48.647Z,19.9
2022-08-09T20:33:58.349Z,19.8
2022-08-09T20:38:22.316Z,19.6
2022-08-09T20:40:15.740Z,19.5
2022-08-09T20:48:22.804Z,19.2
2022-08-09T20:50:47.510Z,19.1
2022-08-09T20:52:34.087Z,19
2022-08-09T20:54:37.580Z,18.9
2022-08-09T21:00:49.697Z,18.8
2022-08-09T21:02:53.049Z,18.7
2022-08-09T21:05:56.926Z,18.6
2022-08-09T21:07:11.734Z,18.6
2022-08-09T21:09:11.822Z,18.5
2022-08-09T21:13:15.354Z,18.4
2022-08-09T21:18:22.214Z,18.3
2022-08-09T21:21:56.055Z,18.2
2022-08-09T21:23:47.794Z,18.1
2022-08-09T21:26:45.238Z,18
2022-08-09T21:28:51.823Z,18
2022-08-09T21:30:52.969Z,17.9
2022-08-09T21:32:57.191Z,17.9
2022-08-09T21:35:03.958Z,17.8
2022-08-09T21:37:18.157Z,17.8
2022-08-09T21:39:11.666Z,17.8
2022-08-09T21:41:17.057Z,17.7
2022-08-09T21:43:21.717Z,17.7
2022-08-09T21:45:23.178Z,17.7
2022-08-09T21:47:27.029Z,17.6
2022-08-09T21:49:39.365Z,17.5
2022-08-09T21:51:43.591Z,17.5
2022-08-09T21:53:41.877Z,17.4
2022-08-09T21:55:46.662Z,17.4
2022-08-09T21:57:59.421Z,17.3
2022-08-09T21:59:53.447Z,17.3
2022-08-09T22:02:00.297Z,17.3
2022-08-09T22:04:04.485Z,17.2
2022-08-09T22:06:08.311Z,17.2
2022-08-09T22:08:13.874Z,17.1
2022-08-09T22:10:22.220Z,17.1
2022-08-09T22:12:24.787Z,17
2022-08-09T22:14:23.753Z,17
2022-08-09T22:16:27.585Z,17
2022-08-09T22:18:34.720Z,17
2022-08-09T22:20:38.580Z,16.9
2022-08-09T22:22:42.425Z,16.9
2022-08-09T22:36:12.434Z,16.7
2022-08-09T22:38:16.291Z,16.7
2022-08-09T22:40:20.530Z,16.7
2022-08-09T22:48:15.665Z,16.6
2022-08-09T22:48:39.121Z,16.5
2022-08-09T22:56:54.728Z,16.4
2022-08-09T22:58:58.128Z,16.4
2022-08-09T23:01:05.642Z,16.3
2022-08-09T23:03:12.610Z,16.3
2022-08-09T23:05:12.979Z,16.2
2022-08-09T23:07:16.866Z,16.2
2022-08-09T23:09:20.713Z,16.2
2022-08-09T23:11:24.574Z,16.2
2022-08-09T23:20:07.530Z,16.1
2022-08-09T23:22:13.696Z,16.1
2022-08-09T23:24:17.558Z,16
2022-08-09T23:28:28.585Z,16
2022-08-09T23:30:32.407Z,16
2022-08-09T23:32:36.286Z,16
2022-08-09T23:34:40.155Z,16
2022-08-09T23:36:43.991Z,16
2022-08-09T23:38:48.403Z,16
2022-08-09T23:40:51.741Z,16
2022-08-09T23:42:58.898Z,16
2022-08-09T23:45:02.734Z,16
2022-08-09T23:47:06.596Z,15.9
2022-08-09T23:49:10.456Z,15.9
2022-08-09T23:51:14.328Z,15.9
2022-08-09T23:53:18.188Z,15.9
2022-08-09T23:55:22.050Z,15.8
2022-08-09T23:57:29.193Z,15.8
2022-08-09T23:59:33.057Z,15.8
